sensor_id;sensor_type;location;lat;lon;timestamp;P1;durP1;ratioP1;P2;durP2;ratioP2
4051;SDS011;2040;50.924;11.604;2022-11-11T00:00:50;10.07;;;4.60;;
4051;SDS011;2040;50.924;11.604;2022-11-11T00:03:23;7.80;;;4.50;;
4051;SDS011;2040;50.924;11.604;2022-11-11T00:05:48;4.93;;;3.47;;
4051;SDS011;2040;50.924;11.604;2022-11-11T00:08:14;9.13;;;4.67;;
4051;SDS011;2040;50.924;11.604;2022-11-11T00:10:39;6.00;;;3.93;;
4051;SDS011;2040;50.924;11.604;2022-11-11T00:13:06;8.70;;;3.60;;
4051;SDS011;2040;50.924;11.604;2022-11-11T00:15:35;11.10;;;4.60;;
4051;SDS011;2040;50.924;11.604;2022-11-11T00:18:02;8.97;;;3.80;;
4051;SDS011;2040;50.924;11.604;2022-11-11T00:20:47;5.80;;;3.70;;
4051;SDS011;2040;50.924;11.604;2022-11-11T00:23:31;7.10;;;3.87;;
4051;SDS011;2040;50.924;11.604;2022-11-11T00:26:15;9.57;;;4.73;;
4051;SDS011;2040;50.924;11.604;2022-11-11T00:28:41;9.80;;;4.63;;
4051;SDS011;2040;50.924;11.604;2022-11-11T00:31:10;7.33;;;4.10;;
4051;SDS011;2040;50.924;11.604;2022-11-11T00:33:37;8.80;;;4.33;;
4051;SDS011;2040;50.924;11.604;2022-11-11T00:36:04;8.13;;;3.27;;
4051;SDS011;2040;50.924;11.604;2022-11-11T00:38:30;9.73;;;4.43;;
4051;SDS011;2040;50.924;11.604;2022-11-11T00:41:12;13.33;;;4.03;;
4051;SDS011;2040;50.924;11.604;2022-11-11T00:43:43;11.40;;;4.33;;
4051;SDS011;2040;50.924;11.604;2022-11-11T00:46:10;9.03;;;3.80;;
4051;SDS011;2040;50.924;11.604;2022-11-11T00:48:56;7.20;;;4.50;;
4051;SDS011;2040;50.924;11.604;2022-11-11T00:51:40;14.63;;;5.13;;
4051;SDS011;2040;50.924;11.604;2022-11-11T00:54:06;6.70;;;3.93;;
4051;SDS011;2040;50.924;11.604;2022-11-11T00:56:32;6.97;;;3.80;;
4051;SDS011;2040;50.924;11.604;2022-11-11T00:59:00;9.63;;;5.00;;
4051;SDS011;2040;50.924;11.604;2022-11-11T01:01:31;8.63;;;3.67;;
4051;SDS011;2040;50.924;11.604;2022-11-11T01:03:58;13.50;;;4.37;;
4051;SDS011;2040;50.924;11.604;2022-11-11T01:06:24;8.60;;;4.30;;
4051;SDS011;2040;50.924;11.604;2022-11-11T01:08:50;14.23;;;4.43;;
4051;SDS011;2040;50.924;11.604;2022-11-11T01:11:16;6.50;;;2.83;;
4051;SDS011;2040;50.924;11.604;2022-11-11T01:13:44;9.87;;;4.63;;
4051;SDS011;2040;50.924;11.604;2022-11-11T01:16:11;10.03;;;4.00;;
4051;SDS011;2040;50.924;11.604;2022-11-11T01:18:39;8.30;;;3.67;;
4051;SDS011;2040;50.924;11.604;2022-11-11T01:23:42;8.10;;;4.00;;
4051;SDS011;2040;50.924;11.604;2022-11-11T01:26:17;6.50;;;3.67;;
4051;SDS011;2040;50.924;11.604;2022-11-11T01:28:47;8.30;;;3.47;;
4051;SDS011;2040;50.924;11.604;2022-11-11T01:31:13;13.40;;;4.43;;
4051;SDS011;2040;50.924;11.604;2022-11-11T01:33:40;9.80;;;3.57;;
4051;SDS011;2040;50.924;11.604;2022-11-11T01:36:17;9.27;;;4.50;;
4051;SDS011;2040;50.924;11.604;2022-11-11T01:38:47;4.77;;;3.50;;
4051;SDS011;2040;50.924;11.604;2022-11-11T01:41:15;9.93;;;4.03;;
4051;SDS011;2040;50.924;11.604;2022-11-11T01:46:54;7.43;;;4.00;;
4051;SDS011;2040;50.924;11.604;2022-11-11T01:52:18;5.33;;;3.80;;
4051;SDS011;2040;50.924;11.604;2022-11-11T01:54:51;10.33;;;3.93;;
4051;SDS011;2040;50.924;11.604;2022-11-11T02:00:05;10.90;;;4.60;;
4051;SDS011;2040;50.924;11.604;2022-11-11T02:02:51;9.27;;;4.20;;
4051;SDS011;2040;50.924;11.604;2022-11-11T02:05:20;7.17;;;4.47;;
4051;SDS011;2040;50.924;11.604;2022-11-11T02:08:09;11.33;;;5.50;;
4051;SDS011;2040;50.924;11.604;2022-11-11T02:10:38;7.40;;;4.80;;
4051;SDS011;2040;50.924;11.604;2022-11-11T02:13:11;8.83;;;4.43;;
4051;SDS011;2040;50.924;11.604;2022-11-11T02:15:56;6.57;;;3.10;;
4051;SDS011;2040;50.924;11.604;2022-11-11T02:18:22;7.43;;;4.20;;
4051;SDS011;2040;50.924;11.604;2022-11-11T02:20:48;7.20;;;3.73;;
4051;SDS011;2040;50.924;11.604;2022-11-11T02:23:25;11.30;;;4.30;;
4051;SDS011;2040;50.924;11.604;2022-11-11T02:25:55;5.30;;;3.90;;
4051;SDS011;2040;50.924;11.604;2022-11-11T02:28:22;6.73;;;4.03;;
4051;SDS011;2040;50.924;11.604;2022-11-11T02:30:51;5.43;;;3.77;;
4051;SDS011;2040;50.924;11.604;2022-11-11T02:33:17;8.80;;;4.60;;
4051;SDS011;2040;50.924;11.604;2022-11-11T02:35:43;5.63;;;2.47;;
4051;SDS011;2040;50.924;11.604;2022-11-11T02:38:12;5.60;;;3.30;;
4051;SDS011;2040;50.924;11.604;2022-11-11T02:40:39;3.80;;;3.40;;
4051;SDS011;2040;50.924;11.604;2022-11-11T02:43:25;9.83;;;3.50;;
4051;SDS011;2040;50.924;11.604;2022-11-11T02:45:51;6.23;;;3.50;;
4051;SDS011;2040;50.924;11.604;2022-11-11T02:48:20;6.60;;;3.63;;
4051;SDS011;2040;50.924;11.604;2022-11-11T02:50:46;6.53;;;3.00;;
4051;SDS011;2040;50.924;11.604;2022-11-11T02:53:12;4.20;;;2.70;;
4051;SDS011;2040;50.924;11.604;2022-11-11T02:55:41;6.53;;;3.37;;
4051;SDS011;2040;50.924;11.604;2022-11-11T02:58:07;6.03;;;2.90;;
4051;SDS011;2040;50.924;11.604;2022-11-11T03:00:33;6.73;;;2.70;;
4051;SDS011;2040;50.924;11.604;2022-11-11T03:02:59;6.00;;;3.20;;
4051;SDS011;2040;50.924;11.604;2022-11-11T03:05:25;6.27;;;3.90;;
4051;SDS011;2040;50.924;11.604;2022-11-11T03:07:50;9.40;;;3.63;;
4051;SDS011;2040;50.924;11.604;2022-11-11T03:10:16;16.17;;;4.30;;
4051;SDS011;2040;50.924;11.604;2022-11-11T03:12:41;6.37;;;3.30;;
4051;SDS011;2040;50.924;11.604;2022-11-11T03:15:07;13.13;;;3.27;;
4051;SDS011;2040;50.924;11.604;2022-11-11T03:17:33;3.77;;;2.77;;
4051;SDS011;2040;50.924;11.604;2022-11-11T03:20:09;5.30;;;2.60;;
4051;SDS011;2040;50.924;11.604;2022-11-11T03:23:02;7.20;;;2.93;;
4051;SDS011;2040;50.924;11.604;2022-11-11T03:25:32;3.90;;;2.77;;
4051;SDS011;2040;50.924;11.604;2022-11-11T03:28:08;5.13;;;2.47;;
4051;SDS011;2040;50.924;11.604;2022-11-11T03:30:38;9.80;;;3.40;;
4051;SDS011;2040;50.924;11.604;2022-11-11T03:33:05;3.10;;;2.43;;
4051;SDS011;2040;50.924;11.604;2022-11-11T03:35:31;3.70;;;2.57;;
4051;SDS011;2040;50.924;11.604;2022-11-11T03:37:57;4.70;;;2.73;;
4051;SDS011;2040;50.924;11.604;2022-11-11T03:40:48;5.97;;;3.63;;
4051;SDS011;2040;50.924;11.604;2022-11-11T03:43:16;5.23;;;3.40;;
4051;SDS011;2040;50.924;11.604;2022-11-11T03:45:43;10.57;;;3.60;;
4051;SDS011;2040;50.924;11.604;2022-11-11T03:48:09;9.93;;;6.50;;
4051;SDS011;2040;50.924;11.604;2022-11-11T03:50:35;10.83;;;5.70;;
4051;SDS011;2040;50.924;11.604;2022-11-11T03:53:01;9.27;;;4.47;;
4051;SDS011;2040;50.924;11.604;2022-11-11T03:55:27;6.13;;;3.70;;
4051;SDS011;2040;50.924;11.604;2022-11-11T03:57:53;5.60;;;2.93;;
4051;SDS011;2040;50.924;11.604;2022-11-11T04:00:20;9.27;;;3.40;;
4051;SDS011;2040;50.924;11.604;2022-11-11T04:02:47;5.00;;;2.70;;
4051;SDS011;2040;50.924;11.604;2022-11-11T04:05:32;4.37;;;2.80;;
4051;SDS011;2040;50.924;11.604;2022-11-11T04:08:17;6.03;;;3.13;;
4051;SDS011;2040;50.924;11.604;2022-11-11T04:11:06;6.50;;;3.47;;
4051;SDS011;2040;50.924;11.604;2022-11-11T04:13:35;4.97;;;3.00;;
4051;SDS011;2040;50.924;11.604;2022-11-11T04:16:20;5.23;;;2.87;;
4051;SDS011;2040;50.924;11.604;2022-11-11T04:18:46;6.80;;;2.87;;
4051;SDS011;2040;50.924;11.604;2022-11-11T04:21:30;4.17;;;3.10;;
4051;SDS011;2040;50.924;11.604;2022-11-11T04:24:41;3.80;;;3.00;;
4051;SDS011;2040;50.924;11.604;2022-11-11T04:27:18;5.00;;;2.93;;
4051;SDS011;2040;50.924;11.604;2022-11-11T04:29:44;10.73;;;3.40;;
4051;SDS011;2040;50.924;11.604;2022-11-11T04:32:29;5.17;;;3.97;;
4051;SDS011;2040;50.924;11.604;2022-11-11T04:35:06;4.13;;;2.43;;
4051;SDS011;2040;50.924;11.604;2022-11-11T04:37:35;7.60;;;4.47;;
4051;SDS011;2040;50.924;11.604;2022-11-11T04:40:08;4.37;;;2.87;;
4051;SDS011;2040;50.924;11.604;2022-11-11T04:42:53;13.47;;;3.70;;
4051;SDS011;2040;50.924;11.604;2022-11-11T04:45:19;3.93;;;2.37;;
4051;SDS011;2040;50.924;11.604;2022-11-11T04:47:56;3.13;;;2.17;;
4051;SDS011;2040;50.924;11.604;2022-11-11T04:50:27;2.97;;;2.17;;
4051;SDS011;2040;50.924;11.604;2022-11-11T04:52:58;4.43;;;3.20;;
4051;SDS011;2040;50.924;11.604;2022-11-11T04:55:24;7.80;;;3.23;;
4051;SDS011;2040;50.924;11.604;2022-11-11T04:58:08;7.67;;;3.93;;
4051;SDS011;2040;50.924;11.604;2022-11-11T05:00:34;7.50;;;3.67;;
4051;SDS011;2040;50.924;11.604;2022-11-11T05:03:00;8.23;;;3.87;;
4051;SDS011;2040;50.924;11.604;2022-11-11T05:05:41;3.87;;;2.27;;
4051;SDS011;2040;50.924;11.604;2022-11-11T05:08:29;4.63;;;2.47;;
4051;SDS011;2040;50.924;11.604;2022-11-11T05:11:14;7.43;;;1.93;;
4051;SDS011;2040;50.924;11.604;2022-11-11T05:13:41;15.93;;;2.23;;
4051;SDS011;2040;50.924;11.604;2022-11-11T05:16:26;3.20;;;1.53;;
4051;SDS011;2040;50.924;11.604;2022-11-11T05:19:13;3.07;;;1.93;;
4051;SDS011;2040;50.924;11.604;2022-11-11T05:24:46;6.43;;;2.07;;
4051;SDS011;2040;50.924;11.604;2022-11-11T05:27:30;5.20;;;1.80;;
4051;SDS011;2040;50.924;11.604;2022-11-11T05:29:56;3.63;;;2.90;;
4051;SDS011;2040;50.924;11.604;2022-11-11T05:32:22;9.57;;;2.30;;
4051;SDS011;2040;50.924;11.604;2022-11-11T05:34:48;6.10;;;2.50;;
4051;SDS011;2040;50.924;11.604;2022-11-11T05:37:14;2.47;;;1.80;;
4051;SDS011;2040;50.924;11.604;2022-11-11T05:39:41;7.87;;;2.87;;
4051;SDS011;2040;50.924;11.604;2022-11-11T05:42:07;5.20;;;2.40;;
4051;SDS011;2040;50.924;11.604;2022-11-11T05:44:33;4.00;;;1.47;;
4051;SDS011;2040;50.924;11.604;2022-11-11T05:46:58;6.07;;;2.40;;
4051;SDS011;2040;50.924;11.604;2022-11-11T05:49:24;5.80;;;2.13;;
4051;SDS011;2040;50.924;11.604;2022-11-11T05:51:50;3.50;;;2.23;;
4051;SDS011;2040;50.924;11.604;2022-11-11T05:54:17;5.97;;;2.47;;
4051;SDS011;2040;50.924;11.604;2022-11-11T05:56:43;8.20;;;2.63;;
4051;SDS011;2040;50.924;11.604;2022-11-11T05:59:09;4.13;;;2.60;;
4051;SDS011;2040;50.924;11.604;2022-11-11T06:01:35;7.67;;;3.70;;
4051;SDS011;2040;50.924;11.604;2022-11-11T06:04:02;7.00;;;3.33;;
4051;SDS011;2040;50.924;11.604;2022-11-11T06:06:28;4.70;;;2.70;;
4051;SDS011;2040;50.924;11.604;2022-11-11T06:08:54;3.00;;;2.40;;
4051;SDS011;2040;50.924;11.604;2022-11-11T06:11:19;5.67;;;3.20;;
4051;SDS011;2040;50.924;11.604;2022-11-11T06:13:45;5.70;;;3.03;;
4051;SDS011;2040;50.924;11.604;2022-11-11T06:16:10;6.90;;;3.70;;
4051;SDS011;2040;50.924;11.604;2022-11-11T06:18:36;6.90;;;3.53;;
4051;SDS011;2040;50.924;11.604;2022-11-11T06:21:02;7.40;;;3.60;;
4051;SDS011;2040;50.924;11.604;2022-11-11T06:23:27;9.93;;;3.10;;
4051;SDS011;2040;50.924;11.604;2022-11-11T06:25:53;9.30;;;3.47;;
4051;SDS011;2040;50.924;11.604;2022-11-11T06:28:42;5.90;;;2.80;;
4051;SDS011;2040;50.924;11.604;2022-11-11T06:31:10;4.87;;;3.10;;
4051;SDS011;2040;50.924;11.604;2022-11-11T06:33:38;5.93;;;2.53;;
4051;SDS011;2040;50.924;11.604;2022-11-11T06:36:04;4.33;;;3.00;;
4051;SDS011;2040;50.924;11.604;2022-11-11T06:38:30;12.40;;;3.60;;
4051;SDS011;2040;50.924;11.604;2022-11-11T06:40:57;5.57;;;3.40;;
4051;SDS011;2040;50.924;11.604;2022-11-11T06:43:22;7.03;;;3.00;;
4051;SDS011;2040;50.924;11.604;2022-11-11T06:45:49;9.87;;;3.40;;
4051;SDS011;2040;50.924;11.604;2022-11-11T06:48:16;3.13;;;2.80;;
4051;SDS011;2040;50.924;11.604;2022-11-11T06:50:41;7.33;;;4.03;;
4051;SDS011;2040;50.924;11.604;2022-11-11T06:53:08;11.10;;;2.60;;
4051;SDS011;2040;50.924;11.604;2022-11-11T06:55:35;8.60;;;3.87;;
4051;SDS011;2040;50.924;11.604;2022-11-11T06:58:11;8.00;;;3.63;;
4051;SDS011;2040;50.924;11.604;2022-11-11T07:00:40;4.77;;;2.93;;
4051;SDS011;2040;50.924;11.604;2022-11-11T07:03:06;9.33;;;4.20;;
4051;SDS011;2040;50.924;11.604;2022-11-11T07:05:34;7.67;;;3.70;;
4051;SDS011;2040;50.924;11.604;2022-11-11T07:08:04;8.53;;;3.87;;
4051;SDS011;2040;50.924;11.604;2022-11-11T07:10:33;11.57;;;3.63;;
4051;SDS011;2040;50.924;11.604;2022-11-11T07:13:00;6.40;;;3.23;;
4051;SDS011;2040;50.924;11.604;2022-11-11T07:15:26;8.63;;;4.20;;
4051;SDS011;2040;50.924;11.604;2022-11-11T07:17:52;7.57;;;3.93;;
4051;SDS011;2040;50.924;11.604;2022-11-11T07:20:18;8.30;;;3.67;;
4051;SDS011;2040;50.924;11.604;2022-11-11T07:22:44;5.70;;;3.60;;
4051;SDS011;2040;50.924;11.604;2022-11-11T07:25:09;6.53;;;3.43;;
4051;SDS011;2040;50.924;11.604;2022-11-11T07:27:35;8.17;;;3.87;;
4051;SDS011;2040;50.924;11.604;2022-11-11T07:30:02;5.20;;;3.13;;
4051;SDS011;2040;50.924;11.604;2022-11-11T07:32:29;6.30;;;3.20;;
4051;SDS011;2040;50.924;11.604;2022-11-11T07:34:55;3.80;;;2.83;;
4051;SDS011;2040;50.924;11.604;2022-11-11T07:37:20;11.23;;;4.23;;
4051;SDS011;2040;50.924;11.604;2022-11-11T07:39:46;7.00;;;3.70;;
4051;SDS011;2040;50.924;11.604;2022-11-11T07:42:11;6.97;;;3.63;;
4051;SDS011;2040;50.924;11.604;2022-11-11T07:44:37;5.50;;;4.00;;
4051;SDS011;2040;50.924;11.604;2022-11-11T07:47:03;6.77;;;3.93;;
4051;SDS011;2040;50.924;11.604;2022-11-11T07:49:29;6.67;;;3.27;;
4051;SDS011;2040;50.924;11.604;2022-11-11T07:51:55;6.13;;;3.13;;
4051;SDS011;2040;50.924;11.604;2022-11-11T07:54:21;14.63;;;3.70;;
4051;SDS011;2040;50.924;11.604;2022-11-11T07:56:47;9.30;;;4.00;;
4051;SDS011;2040;50.924;11.604;2022-11-11T07:59:12;10.20;;;4.00;;
4051;SDS011;2040;50.924;11.604;2022-11-11T08:01:40;9.20;;;4.10;;
4051;SDS011;2040;50.924;11.604;2022-11-11T08:04:06;7.30;;;3.03;;
4051;SDS011;2040;50.924;11.604;2022-11-11T08:06:31;7.30;;;3.40;;
4051;SDS011;2040;50.924;11.604;2022-11-11T08:08:57;16.63;;;4.30;;
4051;SDS011;2040;50.924;11.604;2022-11-11T08:11:23;4.57;;;3.70;;
4051;SDS011;2040;50.924;11.604;2022-11-11T08:14:07;4.80;;;3.30;;
4051;SDS011;2040;50.924;11.604;2022-11-11T08:16:33;6.53;;;4.50;;
4051;SDS011;2040;50.924;11.604;2022-11-11T08:18:59;7.33;;;3.63;;
4051;SDS011;2040;50.924;11.604;2022-11-11T08:21:25;8.57;;;4.40;;
4051;SDS011;2040;50.924;11.604;2022-11-11T08:23:51;9.57;;;4.20;;
4051;SDS011;2040;50.924;11.604;2022-11-11T08:26:17;5.70;;;4.20;;
4051;SDS011;2040;50.924;11.604;2022-11-11T08:28:44;4.10;;;3.50;;
4051;SDS011;2040;50.924;11.604;2022-11-11T08:31:10;7.40;;;3.27;;
4051;SDS011;2040;50.924;11.604;2022-11-11T08:33:36;12.57;;;4.90;;
4051;SDS011;2040;50.924;11.604;2022-11-11T08:36:02;7.47;;;3.87;;
4051;SDS011;2040;50.924;11.604;2022-11-11T08:38:30;12.77;;;3.90;;
4051;SDS011;2040;50.924;11.604;2022-11-11T08:40:59;10.93;;;4.37;;
4051;SDS011;2040;50.924;11.604;2022-11-11T08:43:26;8.67;;;4.53;;
4051;SDS011;2040;50.924;11.604;2022-11-11T08:45:56;7.13;;;4.30;;
4051;SDS011;2040;50.924;11.604;2022-11-11T08:48:28;12.63;;;4.70;;
4051;SDS011;2040;50.924;11.604;2022-11-11T08:50:55;8.33;;;4.17;;
4051;SDS011;2040;50.924;11.604;2022-11-11T08:53:21;8.90;;;3.77;;
4051;SDS011;2040;50.924;11.604;2022-11-11T08:55:48;8.20;;;3.90;;
4051;SDS011;2040;50.924;11.604;2022-11-11T08:58:14;8.67;;;4.00;;
4051;SDS011;2040;50.924;11.604;2022-11-11T09:00:40;6.27;;;3.73;;
4051;SDS011;2040;50.924;11.604;2022-11-11T09:03:08;7.93;;;4.30;;
4051;SDS011;2040;50.924;11.604;2022-11-11T09:05:36;5.63;;;3.80;;
4051;SDS011;2040;50.924;11.604;2022-11-11T09:10:33;6.53;;;4.17;;
4051;SDS011;2040;50.924;11.604;2022-11-11T09:12:59;3.30;;;2.17;;
4051;SDS011;2040;50.924;11.604;2022-11-11T09:15:26;7.90;;;3.40;;
4051;SDS011;2040;50.924;11.604;2022-11-11T09:17:53;12.10;;;3.57;;
4051;SDS011;2040;50.924;11.604;2022-11-11T09:20:19;3.93;;;2.30;;
4051;SDS011;2040;50.924;11.604;2022-11-11T09:22:45;5.03;;;3.10;;
4051;SDS011;2040;50.924;11.604;2022-11-11T09:25:13;5.73;;;3.23;;
4051;SDS011;2040;50.924;11.604;2022-11-11T09:27:39;4.67;;;3.30;;
4051;SDS011;2040;50.924;11.604;2022-11-11T09:30:06;11.27;;;3.70;;
4051;SDS011;2040;50.924;11.604;2022-11-11T09:32:33;6.23;;;3.70;;
4051;SDS011;2040;50.924;11.604;2022-11-11T09:34:58;16.10;;;3.60;;
4051;SDS011;2040;50.924;11.604;2022-11-11T09:37:25;5.27;;;3.20;;
4051;SDS011;2040;50.924;11.604;2022-11-11T09:39:51;3.87;;;3.00;;
4051;SDS011;2040;50.924;11.604;2022-11-11T09:42:29;5.57;;;3.30;;
4051;SDS011;2040;50.924;11.604;2022-11-11T09:50:22;8.53;;;2.57;;
4051;SDS011;2040;50.924;11.604;2022-11-11T09:55:57;5.43;;;1.80;;
4051;SDS011;2040;50.924;11.604;2022-11-11T09:58:43;9.53;;;3.00;;
4051;SDS011;2040;50.924;11.604;2022-11-11T10:01:14;4.50;;;1.20;;
4051;SDS011;2040;50.924;11.604;2022-11-11T10:03:49;1.87;;;1.60;;
4051;SDS011;2040;50.924;11.604;2022-11-11T10:06:25;4.10;;;1.50;;
4051;SDS011;2040;50.924;11.604;2022-11-11T10:09:01;6.03;;;1.47;;
4051;SDS011;2040;50.924;11.604;2022-11-11T10:14:22;2.43;;;1.17;;
4051;SDS011;2040;50.924;11.604;2022-11-11T10:22:35;1.27;;;1.17;;
4051;SDS011;2040;50.924;11.604;2022-11-11T10:27:45;2.90;;;1.20;;
4051;SDS011;2040;50.924;11.604;2022-11-11T10:30:15;4.37;;;1.10;;
4051;SDS011;2040;50.924;11.604;2022-11-11T10:33:00;2.30;;;1.00;;
4051;SDS011;2040;50.924;11.604;2022-11-11T10:35:31;4.00;;;1.00;;
4051;SDS011;2040;50.924;11.604;2022-11-11T10:41:16;1.00;;;0.77;;
4051;SDS011;2040;50.924;11.604;2022-11-11T10:43:47;4.80;;;1.50;;
4051;SDS011;2040;50.924;11.604;2022-11-11T10:46:27;4.17;;;1.10;;
4051;SDS011;2040;50.924;11.604;2022-11-11T10:51:34;2.60;;;1.27;;
4051;SDS011;2040;50.924;11.604;2022-11-11T10:54:08;3.30;;;1.60;;
4051;SDS011;2040;50.924;11.604;2022-11-11T10:56:46;2.20;;;1.47;;
4051;SDS011;2040;50.924;11.604;2022-11-11T10:59:43;4.20;;;1.43;;
4051;SDS011;2040;50.924;11.604;2022-11-11T11:02:18;6.30;;;1.20;;
4051;SDS011;2040;50.924;11.604;2022-11-11T11:04:49;3.93;;;1.57;;
4051;SDS011;2040;50.924;11.604;2022-11-11T11:07:21;2.60;;;1.43;;
4051;SDS011;2040;50.924;11.604;2022-11-11T11:10:04;6.93;;;1.40;;
4051;SDS011;2040;50.924;11.604;2022-11-11T11:12:51;1.53;;;1.00;;
4051;SDS011;2040;50.924;11.604;2022-11-11T11:15:25;5.40;;;1.33;;
4051;SDS011;2040;50.924;11.604;2022-11-11T11:23:39;2.17;;;1.33;;
4051;SDS011;2040;50.924;11.604;2022-11-11T11:26:07;1.97;;;1.43;;
4051;SDS011;2040;50.924;11.604;2022-11-11T11:28:34;2.60;;;0.93;;
4051;SDS011;2040;50.924;11.604;2022-11-11T11:31:15;3.10;;;1.40;;
4051;SDS011;2040;50.924;11.604;2022-11-11T11:33:59;2.87;;;1.10;;
4051;SDS011;2040;50.924;11.604;2022-11-11T11:36:25;2.70;;;2.00;;
4051;SDS011;2040;50.924;11.604;2022-11-11T11:38:51;1.97;;;1.03;;
4051;SDS011;2040;50.924;11.604;2022-11-11T11:41:17;2.00;;;0.97;;
4051;SDS011;2040;50.924;11.604;2022-11-11T11:44:00;4.97;;;1.30;;
4051;SDS011;2040;50.924;11.604;2022-11-11T11:46:27;1.40;;;1.07;;
4051;SDS011;2040;50.924;11.604;2022-11-11T11:56:55;3.70;;;1.00;;
4051;SDS011;2040;50.924;11.604;2022-11-11T11:59:36;5.50;;;1.10;;
4051;SDS011;2040;50.924;11.604;2022-11-11T12:07:42;1.90;;;0.90;;
4051;SDS011;2040;50.924;11.604;2022-11-11T12:19:00;3.00;;;0.90;;
4051;SDS011;2040;50.924;11.604;2022-11-11T12:24:28;2.00;;;0.97;;
4051;SDS011;2040;50.924;11.604;2022-11-11T12:35:03;1.43;;;0.90;;
4051;SDS011;2040;50.924;11.604;2022-11-11T12:52:02;1.73;;;0.77;;
4051;SDS011;2040;50.924;11.604;2022-11-11T12:54:45;1.10;;;0.73;;
4051;SDS011;2040;50.924;11.604;2022-11-11T13:11:13;1.77;;;0.70;;
4051;SDS011;2040;50.924;11.604;2022-11-11T13:13:52;1.37;;;0.90;;
4051;SDS011;2040;50.924;11.604;2022-11-11T13:16:32;0.80;;;0.80;;
4051;SDS011;2040;50.924;11.604;2022-11-11T13:18:59;2.50;;;0.70;;
4051;SDS011;2040;50.924;11.604;2022-11-11T13:21:44;0.70;;;0.70;;
4051;SDS011;2040;50.924;11.604;2022-11-11T13:24:14;1.57;;;0.90;;
4051;SDS011;2040;50.924;11.604;2022-11-11T13:26:51;0.80;;;0.70;;
4051;SDS011;2040;50.924;11.604;2022-11-11T13:32:03;3.30;;;0.63;;
4051;SDS011;2040;50.924;11.604;2022-11-11T13:34:33;1.43;;;0.60;;
4051;SDS011;2040;50.924;11.604;2022-11-11T13:36:59;2.77;;;0.93;;
4051;SDS011;2040;50.924;11.604;2022-11-11T13:39:39;1.30;;;0.70;;
4051;SDS011;2040;50.924;11.604;2022-11-11T13:42:12;0.77;;;0.63;;
4051;SDS011;2040;50.924;11.604;2022-11-11T13:44:56;0.60;;;0.50;;
4051;SDS011;2040;50.924;11.604;2022-11-11T13:47:38;2.40;;;0.50;;
4051;SDS011;2040;50.924;11.604;2022-11-11T13:50:12;2.00;;;0.70;;
4051;SDS011;2040;50.924;11.604;2022-11-11T13:53:03;1.53;;;0.70;;
4051;SDS011;2040;50.924;11.604;2022-11-11T13:55:37;1.10;;;0.80;;
4051;SDS011;2040;50.924;11.604;2022-11-11T13:58:06;0.50;;;0.50;;
4051;SDS011;2040;50.924;11.604;2022-11-11T14:00:35;2.93;;;0.73;;
4051;SDS011;2040;50.924;11.604;2022-11-11T14:05:46;1.67;;;0.80;;
4051;SDS011;2040;50.924;11.604;2022-11-11T14:08:49;1.70;;;0.80;;
4051;SDS011;2040;50.924;11.604;2022-11-11T14:11:25;1.10;;;0.73;;
4051;SDS011;2040;50.924;11.604;2022-11-11T14:13:51;0.70;;;0.60;;
4051;SDS011;2040;50.924;11.604;2022-11-11T14:21:47;0.60;;;0.60;;
4051;SDS011;2040;50.924;11.604;2022-11-11T14:29:33;0.70;;;0.70;;
4051;SDS011;2040;50.924;11.604;2022-11-11T14:35:17;2.70;;;0.70;;
4051;SDS011;2040;50.924;11.604;2022-11-11T14:40:45;2.93;;;1.20;;
4051;SDS011;2040;50.924;11.604;2022-11-11T14:46:03;1.53;;;0.90;;
4051;SDS011;2040;50.924;11.604;2022-11-11T14:51:39;4.37;;;1.20;;
4051;SDS011;2040;50.924;11.604;2022-11-11T14:57:00;1.43;;;1.00;;
4051;SDS011;2040;50.924;11.604;2022-11-11T14:59:30;4.63;;;1.20;;
4051;SDS011;2040;50.924;11.604;2022-11-11T15:01:57;2.60;;;0.90;;
4051;SDS011;2040;50.924;11.604;2022-11-11T15:04:24;1.33;;;0.93;;
4051;SDS011;2040;50.924;11.604;2022-11-11T15:06:52;1.37;;;1.07;;
4051;SDS011;2040;50.924;11.604;2022-11-11T15:17:44;2.00;;;1.07;;
4051;SDS011;2040;50.924;11.604;2022-11-11T15:23:16;2.40;;;1.50;;
4051;SDS011;2040;50.924;11.604;2022-11-11T15:36:56;2.77;;;1.20;;
4051;SDS011;2040;50.924;11.604;2022-11-11T15:39:30;6.00;;;1.10;;
4051;SDS011;2040;50.924;11.604;2022-11-11T15:42:02;2.30;;;1.23;;
4051;SDS011;2040;50.924;11.604;2022-11-11T15:44:29;4.77;;;2.00;;
4051;SDS011;2040;50.924;11.604;2022-11-11T15:46:58;7.57;;;1.97;;
4051;SDS011;2040;50.924;11.604;2022-11-11T15:54:51;2.63;;;1.40;;
4051;SDS011;2040;50.924;11.604;2022-11-11T15:57:31;1.93;;;1.70;;
4051;SDS011;2040;50.924;11.604;2022-11-11T15:59:59;3.07;;;1.30;;
4051;SDS011;2040;50.924;11.604;2022-11-11T16:02:30;1.70;;;1.30;;
4051;SDS011;2040;50.924;11.604;2022-11-11T16:05:20;3.03;;;1.60;;
4051;SDS011;2040;50.924;11.604;2022-11-11T16:07:46;3.27;;;1.17;;
4051;SDS011;2040;50.924;11.604;2022-11-11T16:10:29;2.87;;;1.47;;
4051;SDS011;2040;50.924;11.604;2022-11-11T16:18:29;3.17;;;1.67;;
4051;SDS011;2040;50.924;11.604;2022-11-11T16:23:34;3.30;;;2.00;;
4051;SDS011;2040;50.924;11.604;2022-11-11T16:26:02;4.10;;;2.10;;
4051;SDS011;2040;50.924;11.604;2022-11-11T16:28:41;7.47;;;2.70;;
4051;SDS011;2040;50.924;11.604;2022-11-11T16:33:58;4.80;;;2.57;;
4051;SDS011;2040;50.924;11.604;2022-11-11T16:36:24;4.17;;;2.67;;
4051;SDS011;2040;50.924;11.604;2022-11-11T16:38:50;4.57;;;2.40;;
4051;SDS011;2040;50.924;11.604;2022-11-11T16:43:48;6.87;;;3.17;;
4051;SDS011;2040;50.924;11.604;2022-11-11T16:46:14;7.13;;;2.70;;
4051;SDS011;2040;50.924;11.604;2022-11-11T16:49:12;5.10;;;3.00;;
4051;SDS011;2040;50.924;11.604;2022-11-11T16:51:48;4.80;;;2.47;;
4051;SDS011;2040;50.924;11.604;2022-11-11T16:54:16;2.10;;;1.90;;
4051;SDS011;2040;50.924;11.604;2022-11-11T16:56:54;1.83;;;1.50;;
4051;SDS011;2040;50.924;11.604;2022-11-11T16:59:33;5.10;;;1.60;;
4051;SDS011;2040;50.924;11.604;2022-11-11T17:02:17;1.47;;;1.20;;
4051;SDS011;2040;50.924;11.604;2022-11-11T17:04:52;3.60;;;1.47;;
4051;SDS011;2040;50.924;11.604;2022-11-11T17:10:10;2.67;;;1.60;;
4051;SDS011;2040;50.924;11.604;2022-11-11T17:12:37;3.07;;;1.90;;
4051;SDS011;2040;50.924;11.604;2022-11-11T17:15:08;4.70;;;2.37;;
4051;SDS011;2040;50.924;11.604;2022-11-11T17:17:36;4.73;;;2.70;;
4051;SDS011;2040;50.924;11.604;2022-11-11T17:20:05;4.60;;;2.90;;
4051;SDS011;2040;50.924;11.604;2022-11-11T17:25:33;4.30;;;2.70;;
4051;SDS011;2040;50.924;11.604;2022-11-11T17:27:59;4.23;;;1.87;;
4051;SDS011;2040;50.924;11.604;2022-11-11T17:30:28;2.30;;;2.00;;
4051;SDS011;2040;50.924;11.604;2022-11-11T17:33:16;4.07;;;2.57;;
4051;SDS011;2040;50.924;11.604;2022-11-11T17:35:54;6.50;;;2.60;;
4051;SDS011;2040;50.924;11.604;2022-11-11T17:38:25;4.37;;;2.87;;
4051;SDS011;2040;50.924;11.604;2022-11-11T17:40:50;10.13;;;3.33;;
4051;SDS011;2040;50.924;11.604;2022-11-11T17:43:16;6.07;;;3.37;;
4051;SDS011;2040;50.924;11.604;2022-11-11T17:45:55;4.83;;;2.80;;
4051;SDS011;2040;50.924;11.604;2022-11-11T17:51:40;7.97;;;3.90;;
4051;SDS011;2040;50.924;11.604;2022-11-11T17:54:07;5.87;;;3.50;;
4051;SDS011;2040;50.924;11.604;2022-11-11T17:56:36;12.00;;;4.37;;
4051;SDS011;2040;50.924;11.604;2022-11-11T17:59:03;4.97;;;4.10;;
4051;SDS011;2040;50.924;11.604;2022-11-11T18:01:31;7.43;;;3.83;;
4051;SDS011;2040;50.924;11.604;2022-11-11T18:03:57;8.53;;;4.10;;
4051;SDS011;2040;50.924;11.604;2022-11-11T18:06:24;6.70;;;4.50;;
4051;SDS011;2040;50.924;11.604;2022-11-11T18:08:51;9.30;;;3.90;;
4051;SDS011;2040;50.924;11.604;2022-11-11T18:11:24;9.07;;;4.27;;
4051;SDS011;2040;50.924;11.604;2022-11-11T18:13:58;8.80;;;3.93;;
4051;SDS011;2040;50.924;11.604;2022-11-11T18:16:41;8.80;;;4.30;;
4051;SDS011;2040;50.924;11.604;2022-11-11T18:19:07;8.33;;;5.03;;
4051;SDS011;2040;50.924;11.604;2022-11-11T18:21:33;5.83;;;4.10;;
4051;SDS011;2040;50.924;11.604;2022-11-11T18:24:09;8.93;;;5.67;;
4051;SDS011;2040;50.924;11.604;2022-11-11T18:26:57;9.50;;;5.60;;
4051;SDS011;2040;50.924;11.604;2022-11-11T18:29:26;5.37;;;3.60;;
4051;SDS011;2040;50.924;11.604;2022-11-11T18:32:03;8.60;;;4.50;;
4051;SDS011;2040;50.924;11.604;2022-11-11T18:34:30;8.17;;;5.07;;